Nearby METAR Reports

 

KMGY - Dayton, Ohio, USA
Distance from station: N 3mi, 5km
Updated: 02/17/2020 1:53am
Clear
Clear
 Wind from calm
Wind: Calm
Temperature: 30°F , -1°C
Dew Point: 27°F , -3°C
Humidity: 86%
Barometer: 30.14 inHg , 1020.7 hPa
Clouds: Clear
Visibility: 9 miles , 14 km
2020/02/17 06:53 KMGY 170653Z AUTO 00000KT 9SM CLR M01/M03 A3014 RMK AO2 SLP212 T10111033
KMWO - Middletown/Hook, Ohio, USA
Distance from station: W 9mi, 14km
Updated: 02/17/2020 1:55am
Mist, Clear
Mist, Clear
 Wind from calm
Wind: Calm
Temperature: 23°F , -5°C
Dew Point: 23°F , -5°C
Humidity: 100%
Barometer: 30.17 inHg , 1021.7 hPa
Summary: Mist
Clouds: Clear
Visibility: 5 miles , 8 km
2020/02/17 06:55 KMWO 170655Z AUTO 00000KT 5SM BR CLR M05/M05 A3017 RMK AO2 T10491054
 
KHAO - Hamilton, Ohio, USA
Distance from station: SW 20mi, 32km
Updated: 02/17/2020 1:53am
Clear
Clear
 Wind from calm
Wind: Calm
Temperature: 23°F , -5°C
Dew Point: 21°F , -6°C
Humidity: 93%
Barometer: 30.16 inHg , 1021.3 hPa
Clouds: Clear
Visibility: 7 miles , 11 km
2020/02/17 06:53 KHAO 170653Z AUTO 00000KT 7SM CLR M05/M06 A3016 RMK AO2 SLP219 I1000 T10501061
KFFO - Wright Paterson, Ohio, USA
Distance from station: NNE 21mi, 34km
Updated: 02/17/2020 1:56am
Clear
Clear
 Wind from calm
Wind: Calm
Temperature: 25°F , -4°C
Dew Point: 23°F , -5°C
Humidity: 93%
Barometer: 30.15 inHg , 1021 hPa
Clouds: Clear
Visibility: 8 miles , 13 km
2020/02/17 06:56 KFFO 170656Z AUTO 00000KT 8SM CLR M04/M05 A3015 RMK AO2 SLP221 T10361052
 
KDAY - Dayton, Ohio, USA
Distance from station: N 24mi, 39km
Updated: 02/17/2020 1:56am
Few Clouds
Few Clouds
 Wind from NE
Wind: NE 3 mph , 6 km/h
Temperature: 30°F , -1°C
Dew Point: 25°F , -4°C
Humidity: 80%
Barometer: 30.15 inHg , 1021 hPa
Clouds: Few Clouds
Visibility: 9 miles , 14 km
Cloud details: Few Clouds 20000 ft
2020/02/17 06:56 KDAY 170656Z 05003KT 9SM FEW200 M01/M04 A3015 RMK AO2 SLP216 T10111039
KILN - Wilmington, Ohio, USA
Distance from station: ESE 25mi, 39km
Updated: 02/17/2020 1:54am
Clear
Clear
 Wind from ENE
Wind: ENE 6 mph , 9 km/h
Temperature: 28°F , -2°C
Wind Chill: 21°F , -6°C
Dew Point: 25°F , -4°C
Humidity: 86%
Barometer: 30.14 inHg , 1020.7 hPa
Clouds: Clear
Visibility: 10 miles , 16 km
2020/02/17 06:54 KILN 170654Z AUTO 07005KT 10SM CLR M02/M04 A3014 RMK AO2 SLP227 T10171039
 
KSGH - Springfield Muni, Ohio, USA
Distance from station: NE 29mi, 46km
Updated: 02/17/2020 1:56am
Clear
Clear
 Wind from E
Wind: E 3 mph , 6 km/h
Temperature: 27°F , -3°C
Dew Point: 27°F , -3°C
Humidity: 100%
Barometer: 30.14 inHg , 1020.7 hPa
Clouds: Clear
Visibility: 8 miles , 13 km
2020/02/17 06:56 KSGH 170656Z AUTO 08003KT 8SM CLR M03/M03 A3014 RMK AO2 SLP218 T10281028
KI69 - Batavia, Ohio, USA
Distance from station: S 32mi, 52km
Updated: 02/17/2020 2:16am
Clear
Clear
 Wind from calm
Wind: Calm
Temperature: 28°F , -2°C
Dew Point: 25°F , -4°C
Humidity: 86%
Barometer: 30.15 inHg , 1021 hPa
Clouds: Clear
Visibility: 10 miles , 16 km
2020/02/17 07:16 KI69 170716Z AUTO 00000KT 10SM CLR M02/M04 A3015 RMK AO2 T10211036
 
KLUK - Cincinnat/Lunken, Ohio, USA
Distance from station: SSW 33mi, 53km
Updated: 02/17/2020 1:53am
Clear
Clear
 Wind from NE
Wind: NE 3 mph , 6 km/h
Temperature: 27°F , -3°C
Dew Point: 27°F , -3°C
Humidity: 100%
Barometer: 30.16 inHg , 1021.3 hPa
Clouds: Clear
Visibility: 8 miles , 13 km
2020/02/17 06:53 KLUK 170653Z AUTO 05003KT 8SM CLR M03/M03 A3016 RMK AO2 SLP217 I1001 T10281033
KCVG - Covington, Kentucky, USA
Distance from station: SSW 42mi, 67km
Updated: 02/17/2020 1:52am
Few Clouds
Few Clouds
 Wind from E
Wind: E 8 mph , 13 km/h
Temperature: 34°F , 1°C
Wind Chill: 27°F , -3°C
Dew Point: 27°F , -3°C
Humidity: 75%
Barometer: 30.12 inHg , 1020 hPa
Clouds: Few Clouds
Visibility: 10 miles , 16 km
Cloud details: Few Clouds 25000 ft
2020/02/17 06:52 KCVG 170652Z 08007KT 10SM FEW250 01/M03 A3012 RMK AO2 SLP204 T00061033
 
KVES - Versailles, Ohio, USA
Distance from station: NNW 47mi, 76km
Updated: 02/17/2020 1:50am
Mist, Clear
Mist, Clear
 Wind from calm
Wind: Calm
Temperature: 25°F , -4°C
Dew Point: 25°F , -4°C
Humidity: 100%
Barometer: 30.14 inHg , 1020.7 hPa
Summary: Mist
Clouds: Clear
Visibility: 4 miles , 6 km
2020/02/17 06:50 KVES 170650Z AUTO 00000KT 4SM BR CLR M04/M04 A3014 RMK AO2